Time;durP1;ratioP1;P1;durP2;ratioP2;P2;SDS_P1;SDS_P2;PMS_P1;PMS_P2;Temp;Humidity;BMP_temperature;BMP_pressure;BME280_temperature;BME280_humidity;BME280_pressure;Samples;Min_cycle;Max_cycle;Signal;HPM_P1;HPM_P2
2022/10/10 00:01:56;;;;;;;26.40;14.90;;;;;;;6.02;74.20;99868.09;87107;1298;22483;-78
2022/10/10 00:03:58;;;;;;;25.90;15.40;;;;;;;6.02;74.32;99866.35;87056;1287;26858;-77
2022/10/10 00:05:59;;;;;;;27.00;16.20;;;;;;;6.01;74.31;99865.15;87167;1303;22514;-77
2022/10/10 00:08:00;;;;;;;26.00;15.70;;;;;;;6.01;74.42;99863.41;87119;1291;23516;-77
2022/10/10 00:10:01;;;;;;;24.60;15.90;;;;;;;6.00;74.34;99862.91;87245;1295;22501;-77
2022/10/10 00:12:02;;;;;;;22.50;15.60;;;;;;;5.98;74.45;99862.75;87219;1288;22639;-78
2022/10/10 00:14:04;;;;;;;28.40;16.70;;;;;;;5.97;74.46;99854.55;87189;1295;22422;-77
2022/10/10 00:16:06;;;;;;;23.90;14.40;;;;;;;5.96;74.50;99854.20;87364;1288;24413;-77
2022/10/10 00:18:07;;;;;;;24.50;16.20;;;;;;;5.92;74.46;99853.04;87175;1296;23366;-78
2022/10/10 00:20:14;;;;;;;24.80;16.00;;;;;;;5.88;74.42;99851.70;87181;1295;22503;-78
2022/10/10 00:22:15;;;;;;;28.50;15.70;;;;;;;5.87;74.54;99852.09;87373;1317;22325;-79
2022/10/10 00:24:16;;;;;;;26.20;16.70;;;;;;;5.85;74.38;99846.35;87198;1295;23348;-77
2022/10/10 00:26:17;;;;;;;28.40;16.20;;;;;;;5.83;74.51;99845.85;87201;1295;24257;-77
2022/10/10 00:28:18;;;;;;;23.20;15.50;;;;;;;5.80;74.45;99842.57;87105;1291;22035;-79
2022/10/10 00:30:20;;;;;;;24.50;16.50;;;;;;;5.77;74.54;99843.48;87262;1313;22513;-79
2022/10/10 00:32:21;;;;;;;;;;;;;;;5.78;74.67;99846.63;87113;1303;22911;-78
2022/10/10 00:34:21;;;;;;;27.60;15.30;;;;;;;5.78;74.67;99845.23;87237;1295;25101;-78
2022/10/10 00:36:22;;;;;;;23.20;16.00;;;;;;;5.75;74.77;99835.69;87658;1300;22142;-78
2022/10/10 00:38:25;;;;;;;27.40;16.50;;;;;;;5.76;74.75;99840.54;87770;1292;25041;-78
2022/10/10 00:40:26;;;;;;;25.40;15.50;;;;;;;5.75;74.72;99840.21;87526;1317;22775;-77
2022/10/10 00:42:27;;;;;;;;;;;;;;;5.74;74.70;99834.81;87567;1313;22441;-78
2022/10/10 00:44:28;;;;;;;34.40;16.60;;;;;;;5.76;74.86;99831.31;87535;1295;21908;-78
2022/10/10 00:46:29;;;;;;;25.10;15.50;;;;;;;5.75;74.93;99831.85;87507;1309;22502;-78
2022/10/10 00:48:41;;;;;;;26.10;15.40;;;;;;;5.76;74.90;99828.86;87418;1306;22658;-78
2022/10/10 00:50:57;;;;;;;28.80;15.30;;;;;;;5.76;74.85;99827.13;87287;1292;22625;-78
2022/10/10 00:53:02;;;;;;;21.70;15.70;;;;;;;5.76;74.97;99822.42;87501;1304;22483;-78
2022/10/10 00:55:04;;;;;;;25.00;15.80;;;;;;;5.75;74.80;99825.05;86907;1312;297868;-77
2022/10/10 00:57:10;;;;;;;29.90;16.80;;;;;;;5.74;74.86;99818.80;87145;1295;22475;-77
2022/10/10 00:59:11;;;;;;;28.40;16.80;;;;;;;5.73;74.98;99821.05;87102;1305;24276;-78
2022/10/10 01:01:12;;;;;;;24.10;16.40;;;;;;;5.73;75.06;99816.19;87184;1313;22474;-77
2022/10/10 01:03:15;;;;;;;31.00;16.40;;;;;;;5.70;74.93;99813.79;87225;1282;22589;-77
2022/10/10 01:05:16;;;;;;;23.90;15.30;;;;;;;5.69;74.98;99812.05;87272;1290;22563;-78
2022/10/10 01:07:23;;;;;;;24.50;15.80;;;;;;;5.68;74.88;99813.65;87114;1290;22531;-78
2022/10/10 01:09:26;;;;;;;26.90;15.50;;;;;;;5.65;74.95;99814.04;87293;1297;22431;-77
2022/10/10 01:11:42;;;;;;;23.60;15.10;;;;;;;5.59;74.89;99811.50;87151;1295;25378;-78
2022/10/10 01:13:49;;;;;;;23.40;15.60;;;;;;;5.54;74.90;99810.53;87219;1295;22956;-78
2022/10/10 01:16:06;;;;;;;22.30;13.40;;;;;;;5.51;74.97;99814.06;87404;1287;24742;-77
2022/10/10 01:18:29;;;;;;;29.00;15.40;;;;;;;5.49;75.11;99811.81;87146;1298;22482;-77
2022/10/10 01:20:30;;;;;;;26.80;15.60;;;;;;;5.50;75.08;99812.85;87205;1289;22572;-78
2022/10/10 01:23:17;;;;;;;26.00;16.80;;;;;;;5.49;75.05;99811.64;87295;1308;25401;-78
2022/10/10 01:25:28;;;;;;;20.30;15.20;;;;;;;5.48;75.11;99808.34;87239;1307;23805;-78
2022/10/10 01:27:42;;;;;;;25.10;15.20;;;;;;;5.47;75.14;99810.45;87225;1304;23446;-78
2022/10/10 01:29:52;;;;;;;23.30;15.40;;;;;;;5.42;75.11;99805.63;87288;1311;22471;-77
2022/10/10 01:31:59;;;;;;;25.00;15.50;;;;;;;5.41;75.03;99808.10;87340;1303;26628;-78
2022/10/10 01:34:12;;;;;;;24.60;15.50;;;;;;;5.35;74.90;99804.33;87236;1305;24330;-77
2022/10/10 01:36:13;;;;;;;26.40;15.20;;;;;;;5.30;74.86;99806.33;87284;1294;22504;-78
2022/10/10 01:38:49;;;;;;;24.40;15.60;;;;;;;5.27;75.00;99799.21;87365;1297;24370;-77
2022/10/10 01:41:05;;;;;;;24.40;14.60;;;;;;;5.24;74.92;99802.05;87157;1288;25258;-77
2022/10/10 01:43:07;;;;;;;27.20;15.80;;;;;;;5.18;74.87;99804.38;87290;1310;22301;-77
2022/10/10 01:45:09;;;;;;;25.80;16.30;;;;;;;5.12;74.88;99801.16;87147;1295;22522;-78
2022/10/10 01:47:12;;;;;;;21.40;14.80;;;;;;;5.06;74.90;99803.67;87244;1313;23232;-78
2022/10/10 01:49:13;;;;;;;21.20;15.90;;;;;;;5.03;74.86;99797.80;87296;1300;22967;-79
2022/10/10 01:51:23;;;;;;;24.90;15.90;;;;;;;5.00;74.87;99793.48;87224;1311;22484;-78
2022/10/10 01:53:40;;;;;;;22.40;15.00;;;;;;;4.99;74.94;99794.02;87530;1287;22494;-78
2022/10/10 01:55:53;;;;;;;23.40;15.40;;;;;;;4.97;75.12;99788.98;87338;1295;22489;-79
2022/10/10 01:58:24;;;;;;;30.30;16.00;;;;;;;4.98;75.17;99791.23;87581;1292;22536;-79
2022/10/10 02:00:26;;;;;;;26.90;15.90;;;;;;;4.97;75.19;99788.98;87466;1278;22496;-79
2022/10/10 02:02:48;;;;;;;27.00;17.30;;;;;;;4.95;75.29;99781.85;87458;1308;22527;-78
2022/10/10 02:05:11;;;;;;;29.40;16.60;;;;;;;4.90;75.27;99777.55;87784;1310;22900;-79
2022/10/10 02:07:25;;;;;;;21.00;16.10;;;;;;;4.83;75.17;99776.09;87716;1311;22525;-79
2022/10/10 02:09:35;;;;;;;24.90;13.90;;;;;;;4.73;75.10;99780.04;87330;1313;22949;-80
2022/10/10 02:11:38;;;;;;;23.30;14.30;;;;;;;4.64;75.14;99778.21;87540;1303;24666;-79
2022/10/10 02:13:49;;;;;;;24.10;14.80;;;;;;;4.58;75.16;99777.40;87860;1295;22551;-79
2022/10/10 02:15:52;;;;;;;;;;;;;;;4.54;75.24;99775.17;87598;1304;22465;-79
2022/10/10 02:17:56;;;;;;;18.60;12.50;;;;;;;4.48;75.16;99769.67;87688;1310;22459;-80
2022/10/10 02:19:59;;;;;;;25.60;13.60;;;;;;;4.48;75.43;99771.77;87707;1295;22521;-79
2022/10/10 02:22:01;;;;;;;26.40;14.30;;;;;;;4.48;75.38;99767.77;87454;1307;22632;-79
2022/10/10 02:24:06;;;;;;;21.10;13.70;;;;;;;4.47;75.25;99764.47;87478;1311;22455;-78
2022/10/10 02:26:15;;;;;;;26.00;13.90;;;;;;;4.43;75.29;99761.55;87727;1313;22549;-79
2022/10/10 02:28:32;;;;;;;24.20;14.30;;;;;;;4.41;75.38;99765.05;87739;1295;23757;-80
2022/10/10 02:30:38;;;;;;;26.20;14.80;;;;;;;4.40;75.41;99760.73;87674;1311;22448;-80
2022/10/10 02:32:52;;;;;;;26.60;16.10;;;;;;;4.39;75.53;99760.02;87758;1295;22516;-80
2022/10/10 02:34:59;;;;;;;27.30;16.40;;;;;;;4.37;75.63;99761.61;87803;1306;22718;-80
2022/10/10 02:37:11;;;;;;;29.40;16.70;;;;;;;4.30;75.68;99750.37;87899;1307;22855;-78
2022/10/10 02:39:18;;;;;;;25.10;15.90;;;;;;;4.35;75.84;99756.77;87895;1296;22474;-80
2022/10/10 02:41:21;;;;;;;22.00;15.60;;;;;;;4.35;75.74;99759.38;87959;1310;22658;-79
2022/10/10 02:43:23;;;;;;;25.70;16.90;;;;;;;4.36;75.71;99761.45;87889;1311;22844;-79
2022/10/10 02:45:24;;;;;;;27.40;16.70;;;;;;;4.37;76.03;99762.48;87768;1306;22488;-80
2022/10/10 02:47:26;;;;;;;24.80;15.70;;;;;;;4.39;75.85;99764.38;87913;1311;22582;-78
2022/10/10 02:49:33;;;;;;;22.40;15.10;;;;;;;4.39;75.95;99761.08;87927;1311;22488;-78
2022/10/10 02:51:37;;;;;;;24.50;14.50;;;;;;;4.40;75.85;99760.20;87945;1290;22271;-79
2022/10/10 02:53:45;;;;;;;21.40;15.00;;;;;;;4.40;76.00;99756.71;87952;1308;22317;-80
2022/10/10 02:55:46;;;;;;;28.90;18.00;;;;;;;4.41;76.11;99752.88;87846;1303;22430;-81
2022/10/10 02:57:47;;;;;;;25.20;17.20;;;;;;;4.41;76.07;99754.96;87877;1307;22579;-79
2022/10/10 02:59:53;;;;;;;30.50;15.00;;;;;;;4.40;75.92;99754.30;87951;1294;22541;-79
2022/10/10 03:01:54;;;;;;;22.20;15.60;;;;;;;4.32;75.90;99753.13;87789;1313;24289;-80
2022/10/10 03:03:55;;;;;;;27.00;15.40;;;;;;;4.36;75.92;99754.15;87801;1307;22440;-82
2022/10/10 03:05:59;;;;;;;19.60;14.50;;;;;;;4.34;75.97;99751.91;87927;1299;22499;-80
2022/10/10 03:08:03;;;;;;;30.40;14.60;;;;;;;4.32;75.73;99749.48;87863;1310;22151;-78
2022/10/10 03:10:07;;;;;;;22.20;13.80;;;;;;;4.29;75.67;99747.42;87676;1306;22499;-79
2022/10/10 03:12:08;;;;;;;21.90;15.30;;;;;;;4.28;75.89;99748.47;87842;1310;22509;-79
2022/10/10 03:14:11;;;;;;;21.50;15.00;;;;;;;4.26;75.95;99744.50;87815;1311;22533;-79
2022/10/10 03:16:13;;;;;;;20.90;15.20;;;;;;;4.27;75.93;99742.75;87718;1310;22501;-80
2022/10/10 03:18:14;;;;;;;27.50;14.60;;;;;;;4.26;76.00;99740.67;87811;1301;22487;-79
2022/10/10 03:20:17;;;;;;;32.20;16.00;;;;;;;4.24;75.79;99741.05;87695;1296;26449;-80
2022/10/10 03:22:20;;;;;;;35.20;17.40;;;;;;;4.22;75.96;99737.40;87829;1310;22577;-80
2022/10/10 03:24:23;;;;;;;28.20;16.00;;;;;;;4.22;76.16;99738.98;87804;1304;22568;-80
2022/10/10 03:26:24;;;;;;;34.60;15.60;;;;;;;4.19;75.81;99741.60;87797;1304;22150;-80
2022/10/10 03:28:27;;;;;;;27.10;16.10;;;;;;;4.19;75.91;99740.04;87921;1311;22478;-79
2022/10/10 03:30:30;;;;;;;26.80;16.10;;;;;;;4.18;76.18;99738.84;88204;1306;22555;-79
2022/10/10 03:32:34;;;;;;;41.40;16.70;;;;;;;4.16;76.03;99735.03;88022;1285;22785;-78
2022/10/10 03:34:35;;;;;;;34.80;16.70;;;;;;;4.15;76.16;99733.64;87937;1312;22501;-79
2022/10/10 03:36:42;;;;;;;25.40;16.20;;;;;;;4.11;76.23;99727.25;87984;1310;22464;-79
2022/10/10 03:38:44;;;;;;;22.80;15.80;;;;;;;4.13;76.31;99730.73;88032;1295;22576;-78
2022/10/10 03:40:49;;;;;;;25.00;17.10;;;;;;;4.14;76.41;99730.71;87869;1302;22486;-79
2022/10/10 03:42:50;;;;;;;34.50;17.70;;;;;;;4.14;76.47;99730.36;87814;1303;22722;-80
2022/10/10 03:44:52;;;;;;;24.80;17.60;;;;;;;4.13;76.39;99724.64;87787;1301;22498;-79
2022/10/10 03:46:58;;;;;;;29.30;16.90;;;;;;;4.13;76.50;99722.19;87757;1298;22637;-78
2022/10/10 03:48:59;;;;;;;28.30;17.90;;;;;;;4.13;76.54;99722.19;87785;1307;22583;-79
2022/10/10 03:51:00;;;;;;;31.40;18.30;;;;;;;4.14;76.42;99718.71;87745;1310;22553;-79
2022/10/10 03:53:01;;;;;;;21.80;16.30;;;;;;;4.13;76.50;99716.98;87506;1302;22489;-79
2022/10/10 03:55:03;;;;;;;35.00;18.10;;;;;;;4.13;76.60;99715.59;87784;1310;22711;-78
2022/10/10 03:57:04;;;;;;;33.10;17.00;;;;;;;4.13;76.65;99710.90;87666;1306;22518;-79
2022/10/10 03:59:05;;;;;;;28.20;16.70;;;;;;;4.12;76.55;99706.90;87697;1291;22622;-80
2022/10/10 04:01:06;;;;;;;25.90;17.00;;;;;;;4.11;76.80;99703.77;87459;1318;22464;-80
2022/10/10 04:03:08;;;;;;;36.10;16.70;;;;;;;4.10;76.61;99704.83;87352;1313;22757;-80
2022/10/10 04:05:09;;;;;;;;;;;;;;;4.09;76.75;99705.88;87417;1298;22505;-80
2022/10/10 04:07:09;;;;;;;24.10;15.90;;;;;;;4.08;76.78;99708.85;87545;1310;22866;-79
2022/10/10 04:09:13;;;;;;;23.90;15.30;;;;;;;4.05;76.67;99700.89;87268;1310;22921;-80
2022/10/10 04:11:14;;;;;;;27.70;15.40;;;;;;;4.08;76.64;99704.49;87443;1310;22493;-80
2022/10/10 04:13:15;;;;;;;23.30;15.20;;;;;;;4.09;76.62;99706.75;87396;1309;22607;-80
2022/10/10 04:15:16;;;;;;;;;;;;;;;4.11;76.70;99704.64;87496;1313;25240;-80
2022/10/10 04:17:18;;;;;;;33.10;13.70;;;;;;;4.09;76.72;99705.01;87515;1310;22515;-79
2022/10/10 04:19:19;;;;;;;22.10;14.50;;;;;;;4.07;76.76;99706.59;87447;1316;22076;-79
2022/10/10 04:21:21;;;;;;;41.10;15.40;;;;;;;4.07;76.77;99701.90;87459;1302;22545;-78
2022/10/10 04:23:22;;;;;;;24.00;15.40;;;;;;;4.07;76.82;99703.13;87705;1291;23139;-79
2022/10/10 04:25:25;;;;;;;25.70;14.40;;;;;;;4.08;76.82;99701.89;87411;1288;22423;-78
2022/10/10 04:27:27;;;;;;;32.00;15.20;;;;;;;4.07;76.84;99699.29;87496;1303;22755;-79
2022/10/10 04:29:28;;;;;;;26.50;15.60;;;;;;;4.12;76.94;99707.42;87383;1308;22505;-78
2022/10/10 04:31:29;;;;;;;23.30;15.00;;;;;;;4.09;76.97;99702.58;87513;1312;22515;-79
2022/10/10 04:33:29;;;;;;;28.90;15.70;;;;;;;4.07;76.68;99706.77;87284;1313;22612;-78
2022/10/10 04:35:31;;;;;;;;;;;;;;;4.09;76.91;99709.36;87416;1313;22700;-80
2022/10/10 04:37:33;;;;;;;33.20;14.20;;;;;;;4.08;76.78;99711.98;87482;1311;22508;-79
2022/10/10 04:39:33;;;;;;;27.70;14.70;;;;;;;4.08;76.80;99711.11;87280;1309;24248;-78
2022/10/10 04:41:35;;;;;;;;;;;;;;;4.08;76.76;99710.60;87373;1300;22570;-78
2022/10/10 04:43:36;;;;;;;26.50;13.20;;;;;;;4.08;76.76;99717.20;87422;1310;22641;-79
2022/10/10 04:45:38;;;;;;;20.30;12.70;;;;;;;4.06;76.74;99718.44;87393;1311;22500;-79
2022/10/10 04:47:41;;;;;;;38.80;14.30;;;;;;;4.03;76.75;99717.95;87334;1307;25532;-79
2022/10/10 04:49:42;;;;;;;30.00;14.80;;;;;;;4.02;76.78;99717.60;87247;1313;22168;-79
2022/10/10 04:51:44;;;;;;;23.90;13.80;;;;;;;4.02;76.73;99712.56;87367;1294;22608;-80
2022/10/10 04:53:45;;;;;;;46.60;16.80;;;;;;;3.98;76.78;99706.52;87059;1290;22549;-80
2022/10/10 04:55:46;;;;;;;34.40;16.60;;;;;;;3.98;76.89;99708.77;87329;1278;22504;-80
2022/10/10 04:57:48;;;;;;;29.80;14.40;;;;;;;3.96;76.93;99706.36;87215;1287;22880;-79
2022/10/10 04:59:49;;;;;;;38.90;17.00;;;;;;;3.94;76.67;99705.52;87049;1282;24273;-79
2022/10/10 05:01:49;;;;;;;40.80;18.00;;;;;;;3.95;76.89;99711.60;86972;1295;22433;-79
2022/10/10 05:03:50;;;;;;;32.60;17.20;;;;;;;3.94;77.07;99705.16;86583;1295;22484;-78
2022/10/10 05:05:52;;;;;;;31.50;16.00;;;;;;;3.89;77.17;99694.27;86769;1293;22517;-79
2022/10/10 05:07:53;;;;;;;34.40;15.80;;;;;;;3.97;77.49;99703.74;86591;1294;22983;-77
2022/10/10 05:09:54;;;;;;;33.70;15.60;;;;;;;3.95;77.19;99704.10;86521;1298;22530;-79
2022/10/10 05:11:57;;;;;;;29.80;14.10;;;;;;;4.00;77.31;99706.84;86550;1294;22631;-78
2022/10/10 05:13:58;;;;;;;26.30;14.50;;;;;;;4.00;77.40;99701.80;86763;1296;23309;-78
2022/10/10 05:16:00;;;;;;;37.30;15.10;;;;;;;4.03;77.32;99701.24;86997;1292;22472;-78
2022/10/10 05:18:01;;;;;;;;;;;;;;;4.04;77.24;99700.88;86710;1295;22463;-79
2022/10/10 05:20:03;;;;;;;32.70;14.80;;;;;;;4.03;77.39;99697.95;87262;1311;22447;-78
2022/10/10 05:22:04;;;;;;;29.70;15.10;;;;;;;4.03;77.19;99695.86;86966;1290;27009;-78
2022/10/10 05:24:06;;;;;;;29.40;15.10;;;;;;;4.04;77.24;99696.89;87012;1297;25429;-78
2022/10/10 05:26:08;;;;;;;30.50;15.70;;;;;;;4.04;77.46;99702.63;87033;1311;23545;-78
2022/10/10 05:28:14;;;;;;;31.00;15.60;;;;;;;4.05;77.51;99704.34;87002;1288;22501;-79
2022/10/10 05:30:15;;;;;;;37.20;15.50;;;;;;;4.06;77.51;99707.65;86867;1290;24336;-80
2022/10/10 05:32:16;;;;;;;20.00;14.30;;;;;;;4.05;77.41;99710.61;86835;1295;25317;-78
2022/10/10 05:34:17;;;;;;;24.90;15.00;;;;;;;4.05;77.55;99710.27;86685;1288;22514;-80
2022/10/10 05:36:18;;;;;;;30.80;14.30;;;;;;;4.06;77.51;99713.39;86731;1287;25268;-80
2022/10/10 05:38:19;;;;;;;23.70;15.00;;;;;;;4.05;77.75;99713.57;86807;1294;22516;-79
2022/10/10 05:40:22;;;;;;;44.20;15.00;;;;;;;4.06;77.59;99714.42;86734;1296;22517;-79
2022/10/10 05:42:23;;;;;;;34.70;15.20;;;;;;;4.07;77.66;99716.68;86678;1287;22516;-80
2022/10/10 05:44:24;;;;;;;;;;;;;;;4.09;77.76;99716.84;86575;1298;22577;-80
2022/10/10 05:46:26;;;;;;;28.10;15.30;;;;;;;4.13;77.68;99723.23;86776;1285;22471;-78
2022/10/10 05:48:27;;;;;;;62.40;16.10;;;;;;;4.17;78.00;99721.46;86545;1297;22472;-80
2022/10/10 05:50:39;;;;;;;58.40;15.30;;;;;;;4.20;77.75;99720.73;86628;1288;22611;-78
2022/10/10 05:52:40;;;;;;;48.20;15.00;;;;;;;4.25;77.87;99723.29;86784;1295;22770;-79
2022/10/10 05:54:41;;;;;;;33.30;12.70;;;;;;;4.30;78.09;99723.41;86757;1285;22502;-80
2022/10/10 05:56:42;;;;;;;28.00;13.70;;;;;;;4.34;78.03;99726.85;86817;1288;22508;-79
2022/10/10 05:58:43;;;;;;;20.80;12.30;;;;;;;4.38;77.97;99727.16;86607;1295;25271;-79
2022/10/10 06:00:45;;;;;;;;;;;;;;;4.41;77.88;99726.59;86617;1293;23325;-80
2022/10/10 06:02:46;;;;;;;14.80;10.90;;;;;;;4.43;78.03;99722.23;86619;1288;22481;-80
2022/10/10 06:04:47;;;;;;;23.00;12.60;;;;;;;4.46;77.98;99719.76;86596;1290;22832;-81
2022/10/10 06:06:48;;;;;;;26.50;13.40;;;;;;;4.48;78.01;99714.69;86559;1293;22504;-78
2022/10/10 06:08:50;;;;;;;31.30;11.70;;;;;;;4.54;78.09;99721.40;86595;1295;22501;-80
2022/10/10 06:10:51;;;;;;;;;;;;;;;4.58;78.10;99719.26;86676;1288;22490;-79
2022/10/10 06:12:52;;;;;;;28.00;13.30;;;;;;;4.63;78.11;99719.21;86565;1294;22484;-80
2022/10/10 06:14:53;;;;;;;17.70;11.90;;;;;;;4.67;78.14;99717.42;86576;1297;22542;-80
2022/10/10 06:16:54;;;;;;;29.30;12.80;;;;;;;4.72;78.04;99714.06;86662;1298;22513;-80
2022/10/10 06:18:58;;;;;;;24.90;12.70;;;;;;;4.74;78.12;99712.98;86711;1288;22528;-81
2022/10/10 06:21:04;;;;;;;17.90;12.40;;;;;;;4.82;78.06;99717.92;86910;1312;22522;-79
2022/10/10 06:23:07;;;;;;;25.20;11.50;;;;;;;4.87;78.06;99718.05;86955;1295;23549;-79
2022/10/10 06:25:09;;;;;;;25.10;12.10;;;;;;;4.93;78.17;99717.97;86701;1311;22587;-77
2022/10/10 06:27:10;;;;;;;26.40;12.60;;;;;;;5.00;78.14;99719.10;87051;1301;24419;-80
2022/10/10 06:29:11;;;;;;;24.90;13.40;;;;;;;5.04;78.14;99719.73;86908;1295;25360;-79
2022/10/10 06:31:13;;;;;;;31.40;11.90;;;;;;;5.08;77.95;99720.21;86805;1288;25123;-79
2022/10/10 06:33:17;;;;;;;24.80;12.90;;;;;;;5.13;78.12;99718.23;87023;1295;23811;-81
2022/10/10 06:35:19;;;;;;;38.80;14.30;;;;;;;5.19;78.10;99720.55;86982;1289;22520;-79
2022/10/10 06:37:20;;;;;;;25.60;13.00;;;;;;;5.26;77.96;99722.73;87297;1312;22260;-78
2022/10/10 06:39:22;;;;;;;33.40;13.40;;;;;;;5.32;77.84;99725.27;86826;1295;22451;-79
2022/10/10 06:41:25;;;;;;;44.90;14.10;;;;;;;5.36;77.92;99726.08;87196;1294;22598;-79
2022/10/10 06:43:26;;;;;;;31.70;13.60;;;;;;;5.40;77.96;99721.30;86823;1313;22520;-79
2022/10/10 06:45:27;;;;;;;;;;;;;;;5.48;77.88;99724.69;86694;1288;24237;-80
2022/10/10 06:47:36;;;;;;;26.40;12.50;;;;;;;5.54;77.97;99721.80;87047;1285;22532;-80
2022/10/10 06:49:37;;;;;;;29.40;12.50;;;;;;;5.60;77.90;99712.80;87147;1285;25283;-79
2022/10/10 06:51:39;;;;;;;25.00;12.00;;;;;;;5.67;77.87;99717.25;86656;1288;24814;-78
2022/10/10 06:53:43;;;;;;;25.90;13.50;;;;;;;5.72;77.86;99718.55;86727;1289;25226;-80
2022/10/10 06:55:45;;;;;;;41.70;13.20;;;;;;;5.79;77.89;99718.26;86892;1284;22465;-80
2022/10/10 06:57:47;;;;;;;50.00;12.70;;;;;;;5.87;77.78;99720.75;86809;1301;22479;-80
2022/10/10 06:59:48;;;;;;;33.30;11.90;;;;;;;5.94;78.01;99714.34;86765;1291;22500;-78
2022/10/10 07:01:49;;;;;;;45.60;13.00;;;;;;;6.04;77.77;99714.73;86592;1298;24279;-77
2022/10/10 07:03:51;;;;;;;24.90;12.10;;;;;;;6.12;77.83;99711.45;86743;1295;22499;-78
2022/10/10 07:05:55;;;;;;;26.60;12.10;;;;;;;6.19;77.52;99715.31;86779;1293;22553;-79
2022/10/10 07:07:56;;;;;;;23.80;11.70;;;;;;;6.28;77.69;99717.77;86729;1295;24727;-79
2022/10/10 07:09:57;;;;;;;32.60;11.40;;;;;;;6.38;77.73;99716.20;86864;1295;22535;-80
2022/10/10 07:11:58;;;;;;;36.70;11.30;;;;;;;6.47;77.50;99716.73;87012;1300;23210;-79
2022/10/10 07:14:00;;;;;;;37.70;12.10;;;;;;;6.56;77.50;99715.31;86918;1292;22952;-78
2022/10/10 07:16:02;;;;;;;35.00;10.10;;;;;;;6.65;77.61;99714.08;86923;1285;22476;-79
2022/10/10 07:18:05;;;;;;;19.90;10.10;;;;;;;6.75;77.48;99713.54;86903;1278;23962;-78
2022/10/10 07:20:07;;;;;;;31.30;10.00;;;;;;;6.82;77.40;99709.75;86903;1295;25918;-77
2022/10/10 07:22:08;;;;;;;27.50;10.00;;;;;;;6.89;77.29;99708.89;86598;1313;22526;-79
2022/10/10 07:24:09;;;;;;;18.60;10.70;;;;;;;6.98;77.37;99704.33;86822;1291;22513;-77
2022/10/10 07:26:13;;;;;;;22.50;10.60;;;;;;;7.05;77.62;99699.10;86948;1292;22579;-78
2022/10/10 07:28:14;;;;;;;20.50;10.50;;;;;;;7.20;77.52;99700.00;86822;1313;22501;-80
2022/10/10 07:30:15;;;;;;;15.90;8.80;;;;;;;7.31;77.58;99695.89;86730;1311;25271;-80
2022/10/10 07:32:16;;;;;;;23.80;8.50;;;;;;;7.37;77.23;99695.05;86713;1291;22484;-78
2022/10/10 07:34:17;;;;;;;47.20;10.30;;;;;;;7.48;77.40;99696.02;86747;1289;22515;-79
2022/10/10 07:36:18;;;;;;;28.40;8.90;;;;;;;7.56;77.09;99693.02;86781;1305;23347;-79
2022/10/10 07:38:20;;;;;;;20.60;9.00;;;;;;;7.66;77.21;99692.45;86826;1289;23822;-78
2022/10/10 07:40:21;;;;;;;23.80;8.70;;;;;;;7.75;77.13;99692.41;87090;1294;25854;-80
2022/10/10 07:42:22;;;;;;;19.80;8.20;;;;;;;7.82;77.23;99693.61;87210;1304;23922;-79
2022/10/10 07:44:23;;;;;;;12.20;8.30;;;;;;;7.90;76.77;99688.34;88188;1294;22642;-77
2022/10/10 07:46:24;;;;;;;;;;;;;;;8.02;77.05;99688.91;88245;1296;22617;-78
2022/10/10 07:48:29;;;;;;;32.60;8.10;;;;;;;8.16;77.21;99689.05;88400;1309;22519;-77
2022/10/10 07:50:30;;;;;;;12.70;7.70;;;;;;;8.30;77.04;99690.27;87948;1283;90499;-84
2022/10/10 07:52:31;;;;;;;22.70;8.20;;;;;;;8.38;76.83;99689.52;87606;1299;21959;-84
2022/10/10 07:54:32;;;;;;;16.10;7.60;;;;;;;8.47;76.73;99685.80;87952;1295;22619;-84
2022/10/10 07:56:33;;;;;;;;;;;;;;;8.56;76.37;99687.11;87817;1303;22501;-84
2022/10/10 07:58:35;;;;;;;28.50;8.20;;;;;;;8.66;76.64;99684.56;87844;1309;22545;-83
2022/10/10 08:00:39;;;;;;;11.80;8.00;;;;;;;8.76;76.83;99684.45;87154;1295;22553;-84
2022/10/10 08:02:44;;;;;;;14.80;7.70;;;;;;;8.91;76.77;99680.85;87429;1298;22509;-82
2022/10/10 08:04:45;;;;;;;15.40;7.30;;;;;;;9.03;76.41;99680.33;87910;1310;23057;-82
2022/10/10 08:06:47;;;;;;;17.40;7.20;;;;;;;9.10;76.19;99679.41;87864;1316;22497;-83
2022/10/10 08:08:49;;;;;;;21.20;6.90;;;;;;;9.15;76.14;99672.06;87231;1294;22950;-78
2022/10/10 08:10:50;;;;;;;8.60;6.70;;;;;;;9.28;76.27;99669.70;86241;1289;22478;-77
2022/10/10 08:12:51;;;;;;;11.20;6.80;;;;;;;9.46;76.28;99672.14;86080;1288;22481;-78
2022/10/10 08:14:52;;;;;;;17.90;7.00;;;;;;;9.60;76.04;99669.92;86218;1289;23237;-79
2022/10/10 08:16:52;;;;;;;18.90;7.50;;;;;;;9.77;75.84;99671.10;86325;1294;25478;-79
2022/10/10 08:18:53;;;;;;;23.70;7.50;;;;;;;9.91;75.73;99668.00;86430;1286;22498;-78
2022/10/10 08:21:14;;;;;;;52.50;9.50;;;;;;;10.04;75.59;99668.45;86227;1288;23712;-80
2022/10/10 08:23:15;;;;;;;13.00;6.60;;;;;;;10.16;75.30;99666.45;86248;1288;23499;-79
2022/10/10 08:25:16;;;;;;;15.50;6.50;;;;;;;10.26;75.20;99665.91;86272;1288;24256;-80
2022/10/10 08:27:18;;;;;;;12.20;7.60;;;;;;;10.35;75.10;99658.05;86693;1294;22584;-79
2022/10/10 08:29:19;;;;;;;26.80;6.70;;;;;;;10.47;75.11;99661.16;86147;1287;22508;-79
2022/10/10 08:31:21;;;;;;;25.60;6.60;;;;;;;10.52;74.89;99656.56;86044;1290;22886;-77
2022/10/10 08:33:26;;;;;;;15.70;6.30;;;;;;;10.69;75.12;99659.13;86284;1287;22563;-78
2022/10/10 08:35:27;;;;;;;29.10;6.70;;;;;;;10.81;74.90;99653.58;86149;1287;22671;-80
2022/10/10 08:37:28;;;;;;;15.40;6.50;;;;;;;10.92;74.74;99651.56;86203;1284;22480;-77
2022/10/10 08:39:29;;;;;;;42.60;8.20;;;;;;;11.00;74.49;99648.23;86163;1287;25406;-79
2022/10/10 08:41:45;;;;;;;16.80;6.40;;;;;;;11.08;74.42;99643.52;85894;1287;23505;-75
2022/10/10 08:43:51;;;;;;;16.20;6.00;;;;;;;11.17;74.18;99640.90;86304;1281;22522;-77
2022/10/10 08:45:54;;;;;;;17.10;7.40;;;;;;;11.24;74.26;99643.09;86145;1292;23679;-78
2022/10/10 08:48:02;;;;;;;14.10;6.00;;;;;;;11.33;74.18;99639.73;86380;1289;22633;-78
2022/10/10 08:50:24;;;;;;;12.80;6.20;;;;;;;11.42;74.18;99634.61;86195;1289;22554;-78
2022/10/10 08:52:40;;;;;;;17.00;6.60;;;;;;;11.53;74.17;99625.38;86049;1292;25364;-78
2022/10/10 08:54:42;;;;;;;17.80;6.40;;;;;;;11.62;74.13;99622.17;86582;1287;24801;-79
2022/10/10 08:56:43;;;;;;;22.20;6.50;;;;;;;11.70;73.84;99625.20;86460;1296;22475;-77
2022/10/10 08:58:51;;;;;;;20.50;7.00;;;;;;;11.75;73.70;99623.03;86131;1288;23181;-77
2022/10/10 09:01:09;;;;;;;32.70;6.40;;;;;;;11.82;73.85;99619.59;86013;1286;23947;-77
2022/10/10 09:03:23;;;;;;;20.70;6.50;;;;;;;11.88;73.69;99615.09;86420;1287;22478;-77
2022/10/10 09:06:02;;;;;;;35.70;7.70;;;;;;;11.95;73.68;99615.33;86120;1290;23480;-77
2022/10/10 09:08:23;;;;;;;35.40;7.10;;;;;;;12.07;73.67;99610.77;86037;1288;22676;-77
2022/10/10 09:10:39;;;;;;;17.90;6.30;;;;;;;12.17;73.62;99603.65;86053;1298;22477;-77
2022/10/10 09:13:03;;;;;;;46.30;7.60;;;;;;;12.24;73.42;99601.55;85995;1292;22580;-77
2022/10/10 09:15:12;;;;;;;19.70;6.70;;;;;;;12.34;73.34;99596.70;86176;1287;24251;-79
2022/10/10 09:17:28;;;;;;;18.00;6.70;;;;;;;12.37;73.09;99597.09;85901;1291;22479;-77
2022/10/10 09:19:57;;;;;;;23.70;7.50;;;;;;;12.46;73.10;99598.13;86031;1298;22566;-78
2022/10/10 09:22:03;;;;;;;23.20;6.40;;;;;;;12.50;72.75;99595.46;86176;1281;22534;-78
2022/10/10 09:24:21;;;;;;;20.50;6.90;;;;;;;12.55;72.81;99588.70;86068;1287;22504;-79
2022/10/10 09:26:30;;;;;;;12.60;5.20;;;;;;;12.60;72.63;99585.66;86200;1294;22616;-77
2022/10/10 09:28:51;;;;;;;26.30;6.20;;;;;;;12.68;72.53;99582.05;86232;1288;22822;-79
2022/10/10 09:30:56;;;;;;;9.40;5.00;;;;;;;12.70;72.20;99583.58;86055;1291;25565;-78
2022/10/10 09:33:21;;;;;;;24.00;5.70;;;;;;;12.75;72.06;99580.02;86414;1296;22508;-79
2022/10/10 09:35:29;;;;;;;18.50;6.10;;;;;;;12.74;71.81;99576.70;86035;1297;22510;-78
2022/10/10 09:37:37;;;;;;;37.50;5.50;;;;;;;12.82;72.18;99570.50;85955;1284;24176;-78
2022/10/10 09:39:44;;;;;;;22.40;5.10;;;;;;;12.97;72.08;99574.21;86141;1294;22667;-79
2022/10/10 09:41:54;;;;;;;20.10;5.20;;;;;;;13.04;71.70;99576.48;85870;1289;25578;-79
2022/10/10 09:43:57;;;;;;;5.40;4.70;;;;;;;13.07;71.40;99574.77;86086;1287;22511;-79